Time;durP1;ratioP1;P1;durP2;ratioP2;P2;SDS_P1;SDS_P2;PMS_P1;PMS_P2;Temp;Humidity;BMP_temperature;BMP_pressure;BME280_temperature;BME280_humidity;BME280_pressure;Samples;Min_cycle;Max_cycle;Signal;HPM_P1;HPM_P2
2023/08/08 00:00:05;;;;;;;10.20;5.85;;;13.40;99.90;;;;;;5074741;28;20021;-68
2023/08/08 00:02:30;;;;;;;9.27;6.20;;;13.40;99.90;;;;;;5074637;28;20394;-68
2023/08/08 00:04:56;;;;;;;12.30;5.88;;;13.40;99.90;;;;;;5074442;28;20025;-68
2023/08/08 00:07:22;;;;;;;10.38;6.22;;;13.50;99.90;;;;;;5074863;28;20036;-68
2023/08/08 00:09:47;;;;;;;12.00;6.65;;;13.40;99.90;;;;;;5073380;28;20106;-68
2023/08/08 00:12:13;;;;;;;14.23;7.10;;;13.40;99.90;;;;;;5074442;28;20017;-67
2023/08/08 00:14:38;;;;;;;13.20;6.85;;;13.40;99.90;;;;;;5074645;28;20025;-68
2023/08/08 00:17:04;;;;;;;13.63;6.07;;;13.40;99.90;;;;;;5074470;28;20033;-68
2023/08/08 00:19:29;;;;;;;12.02;6.82;;;13.40;99.90;;;;;;5073364;28;20070;-68
2023/08/08 00:21:55;;;;;;;11.85;6.68;;;13.40;99.90;;;;;;5074195;28;20082;-68
2023/08/08 00:24:20;;;;;;;13.60;7.35;;;13.50;99.90;;;;;;5074351;28;20032;-68
2023/08/08 00:26:46;;;;;;;13.90;7.38;;;13.40;99.90;;;;;;5074142;28;20029;-68
2023/08/08 00:29:11;;;;;;;9.30;6.53;;;13.40;99.90;;;;;;5073855;28;20074;-68
2023/08/08 00:31:37;;;;;;;11.65;6.68;;;13.40;99.90;;;;;;5074222;28;20033;-71
2023/08/08 00:34:02;;;;;;;10.38;6.40;;;13.40;99.90;;;;;;5074019;28;20021;-68
2023/08/08 00:36:28;;;;;;;14.77;7.30;;;13.40;99.90;;;;;;5073907;28;20386;-68
2023/08/08 00:38:53;;;;;;;12.88;6.80;;;13.30;99.90;;;;;;5073891;28;20021;-68
2023/08/08 00:41:19;;;;;;;15.77;6.78;;;13.20;99.90;;;;;;5073904;28;20036;-68
2023/08/08 00:43:45;;;;;;;9.70;5.43;;;13.20;99.90;;;;;;5074072;28;20029;-68
2023/08/08 00:46:11;;;;;;;12.63;5.75;;;13.00;99.90;;;;;;5073823;28;20086;-68
2023/08/08 00:48:37;;;;;;;12.50;5.25;;;13.10;99.90;;;;;;5073787;28;20419;-70
2023/08/08 00:51:03;;;;;;;8.45;5.35;;;13.00;99.90;;;;;;5073976;28;20536;-68
2023/08/08 00:53:31;;;;;;;8.75;4.82;;;13.00;99.90;;;;;;5073651;28;20024;-69
2023/08/08 00:55:57;;;;;;;8.77;4.75;;;12.90;99.90;;;;;;5073586;28;20470;-68
2023/08/08 00:58:23;;;;;;;10.13;5.45;;;12.90;99.90;;;;;;5073671;28;20029;-68
2023/08/08 01:00:49;;;;;;;12.68;5.82;;;12.90;99.90;;;;;;5073852;28;20078;-68
2023/08/08 01:03:14;;;;;;;10.52;5.50;;;12.90;99.90;;;;;;5073757;28;20048;-68
2023/08/08 01:06:03;;;;;;;14.73;6.65;;;12.90;99.90;;;;;;5073706;28;20047;-68
2023/08/08 01:08:39;;;;;;;14.88;7.88;;;12.90;99.90;;;;;;5073774;28;20017;-69
2023/08/08 01:11:05;;;;;;;20.02;9.50;;;13.00;99.90;;;;;;5073658;28;20469;-69
2023/08/08 01:13:32;;;;;;;13.43;8.23;;;13.00;99.90;;;;;;5073915;28;20105;-69
2023/08/08 01:15:59;;;;;;;10.75;8.10;;;13.00;99.90;;;;;;5073658;28;20028;-69
2023/08/08 01:18:25;;;;;;;11.18;7.68;;;13.00;99.90;;;;;;5073455;28;20146;-68
2023/08/08 01:20:52;;;;;;;10.73;7.50;;;13.00;99.90;;;;;;5073171;28;20111;-69
2023/08/08 01:23:28;;;;;;;12.55;7.90;;;13.00;99.90;;;;;;5073464;28;20020;-74
2023/08/08 01:25:54;;;;;;;11.60;7.85;;;13.00;99.90;;;;;;5073379;28;20509;-73
2023/08/08 01:28:22;;;;;;;13.32;7.35;;;13.00;99.90;;;;;;5073072;28;20110;-69
2023/08/08 01:30:49;;;;;;;11.85;7.07;;;13.10;99.90;;;;;;5073408;28;20391;-69
2023/08/08 01:33:15;;;;;;;11.98;7.20;;;13.10;99.90;;;;;;5073401;28;20085;-69
2023/08/08 01:35:46;;;;;;;10.73;7.07;;;13.00;99.90;;;;;;5073080;28;20461;-71
2023/08/08 01:38:19;;;;;;;7.15;4.80;;;13.10;99.90;;;;;;5073413;28;20035;-69
2023/08/08 01:40:45;;;;;;;9.07;4.03;;;13.00;99.90;;;;;;5073215;28;20025;-68
2023/08/08 01:43:13;;;;;;;4.88;3.63;;;12.90;99.90;;;;;;5073310;28;20496;-69
2023/08/08 01:45:39;;;;;;;4.82;4.00;;;12.90;99.90;;;;;;5073242;28;20025;-68
2023/08/08 01:48:08;;;;;;;7.20;4.35;;;12.90;99.90;;;;;;5073137;28;20073;-69
2023/08/08 01:50:34;;;;;;;7.25;5.32;;;13.00;99.90;;;;;;5072917;28;20024;-69
2023/08/08 01:52:59;;;;;;;9.95;6.32;;;13.00;99.90;;;;;;5073198;28;20035;-67
2023/08/08 01:55:25;;;;;;;13.00;7.15;;;13.00;99.90;;;;;;5073061;28;20028;-69
2023/08/08 01:57:50;;;;;;;10.68;7.47;;;13.00;99.90;;;;;;5072981;28;20024;-69
2023/08/08 02:00:16;;;;;;;12.48;10.82;;;13.00;99.90;;;;;;5072952;28;20032;-68
2023/08/08 02:02:41;;;;;;;15.45;11.50;;;13.00;99.90;;;;;;5072968;28;20043;-76
2023/08/08 02:05:07;;;;;;;20.08;15.55;;;13.00;99.90;;;;;;5072989;28;20028;-68
2023/08/08 02:07:32;;;;;;;22.17;17.58;;;13.00;99.90;;;;;;5073110;28;20032;-68
2023/08/08 02:09:58;;;;;;;19.35;16.65;;;13.00;99.90;;;;;;5073842;28;20025;-76
2023/08/08 02:12:24;;;;;;;20.48;16.63;;;13.00;99.90;;;;;;5073162;28;20013;-68
2023/08/08 02:14:49;;;;;;;20.65;15.95;;;13.00;99.90;;;;;;5072839;28;20036;-68
2023/08/08 02:17:15;;;;;;;21.73;17.13;;;13.00;99.90;;;;;;5072734;28;20029;-68
2023/08/08 02:19:40;;;;;;;25.73;19.45;;;13.00;99.90;;;;;;5072782;28;20032;-68
2023/08/08 02:22:06;;;;;;;30.40;22.20;;;13.00;99.90;;;;;;5072750;28;20061;-68
2023/08/08 02:24:31;;;;;;;34.28;24.20;;;13.00;99.90;;;;;;5072887;28;20024;-68
2023/08/08 02:26:57;;;;;;;33.40;23.70;;;13.00;99.90;;;;;;5072644;28;20028;-68
2023/08/08 02:29:22;;;;;;;25.67;22.10;;;13.00;99.90;;;;;;5072144;28;20044;-68
2023/08/08 02:31:48;;;;;;;23.42;20.08;;;13.00;99.90;;;;;;5073387;28;20036;-68
2023/08/08 02:34:13;;;;;;;25.35;21.58;;;13.00;99.90;;;;;;5076298;28;20020;-68
2023/08/08 02:36:39;;;;;;;29.85;23.50;;;12.90;99.90;;;;;;5076282;28;20035;-68
2023/08/08 02:39:04;;;;;;;29.63;23.70;;;12.90;99.90;;;;;;5076320;28;20029;-68
2023/08/08 02:41:30;;;;;;;33.03;25.02;;;12.90;99.90;;;;;;5076551;28;20028;-68
2023/08/08 02:43:55;;;;;;;37.55;24.80;;;12.90;99.90;;;;;;5076115;28;20107;-68
2023/08/08 02:46:21;;;;;;;30.60;22.98;;;12.90;99.90;;;;;;5076062;28;20440;-68
2023/08/08 02:48:46;;;;;;;31.80;22.60;;;13.00;99.90;;;;;;5076137;28;20028;-68
2023/08/08 02:51:12;;;;;;;26.73;21.42;;;12.90;99.90;;;;;;5076204;28;20022;-68
2023/08/08 02:53:37;;;;;;;35.30;23.75;;;12.90;99.90;;;;;;5076221;28;20017;-68
2023/08/08 02:56:03;;;;;;;31.35;22.20;;;12.90;99.90;;;;;;5076020;28;20024;-68
2023/08/08 02:58:29;;;;;;;35.08;23.30;;;13.00;99.90;;;;;;5075871;28;20108;-68
2023/08/08 03:00:54;;;;;;;31.83;22.33;;;13.00;99.90;;;;;;5075815;28;20028;-68
2023/08/08 03:03:20;;;;;;;30.67;19.65;;;13.00;99.90;;;;;;5075955;28;20033;-68
2023/08/08 03:05:46;;;;;;;35.90;20.50;;;13.10;99.90;;;;;;5075973;28;20070;-68
2023/08/08 03:08:12;;;;;;;32.40;20.65;;;13.10;99.90;;;;;;5075648;28;20401;-68
2023/08/08 03:10:37;;;;;;;23.88;16.50;;;13.10;99.90;;;;;;5075690;28;20021;-68
2023/08/08 03:13:03;;;;;;;26.35;16.40;;;13.10;99.90;;;;;;5074518;28;20027;-68
2023/08/08 03:15:29;;;;;;;28.23;16.15;;;13.10;99.90;;;;;;5075771;28;20024;-68
2023/08/08 03:17:55;;;;;;;21.52;13.45;;;13.10;99.90;;;;;;5075754;28;20029;-68
2023/08/08 03:20:21;;;;;;;19.40;11.90;;;13.10;99.90;;;;;;5075525;28;20462;-68
2023/08/08 03:22:46;;;;;;;18.70;12.02;;;13.10;99.90;;;;;;5075460;28;20054;-68
2023/08/08 03:25:12;;;;;;;20.48;11.05;;;13.10;99.90;;;;;;5075623;28;20492;-68
2023/08/08 03:27:37;;;;;;;16.50;11.18;;;13.10;99.90;;;;;;5075156;28;20020;-68
2023/08/08 03:30:03;;;;;;;15.20;10.75;;;13.00;99.90;;;;;;5075185;28;20032;-68
2023/08/08 03:32:29;;;;;;;17.85;10.43;;;13.00;99.90;;;;;;5075460;28;20033;-68
2023/08/08 03:34:54;;;;;;;15.05;9.70;;;13.00;99.90;;;;;;5075382;28;20039;-68
2023/08/08 03:37:20;;;;;;;15.43;10.32;;;13.00;99.90;;;;;;5075158;28;20044;-68
2023/08/08 03:39:45;;;;;;;14.05;9.82;;;12.90;99.90;;;;;;5075144;28;20083;-68
2023/08/08 03:42:11;;;;;;;21.17;11.35;;;12.90;99.90;;;;;;5075050;28;20024;-68
2023/08/08 03:44:36;;;;;;;18.83;10.77;;;13.00;99.90;;;;;;5074899;28;20030;-68
2023/08/08 03:47:02;;;;;;;21.65;10.68;;;13.00;99.90;;;;;;5075261;28;20024;-68
2023/08/08 03:49:28;;;;;;;19.20;9.90;;;12.90;99.90;;;;;;5074822;28;20036;-68
2023/08/08 03:51:53;;;;;;;19.70;10.95;;;12.90;99.90;;;;;;5074850;28;20025;-68
2023/08/08 03:54:19;;;;;;;14.73;9.45;;;12.90;99.90;;;;;;5074805;28;20028;-68
2023/08/08 03:56:44;;;;;;;19.38;9.63;;;13.00;99.90;;;;;;5074786;28;20069;-68
2023/08/08 03:59:10;;;;;;;12.90;9.10;;;12.90;99.90;;;;;;5074746;28;20111;-68
2023/08/08 04:01:37;;;;;;;14.48;8.82;;;12.90;99.90;;;;;;5074731;28;20030;-67
2023/08/08 04:04:03;;;;;;;14.73;8.35;;;13.00;99.90;;;;;;5074750;28;20112;-68
2023/08/08 04:06:29;;;;;;;13.60;8.50;;;13.00;99.90;;;;;;5074723;28;20033;-68
2023/08/08 04:08:55;;;;;;;13.43;8.38;;;13.00;99.90;;;;;;5074610;28;20032;-68
2023/08/08 04:11:20;;;;;;;19.02;8.13;;;13.00;99.90;;;;;;5074387;28;20029;-68
2023/08/08 04:13:46;;;;;;;16.10;7.82;;;13.00;99.90;;;;;;5074487;28;20082;-68
2023/08/08 04:16:11;;;;;;;16.33;8.20;;;13.00;99.90;;;;;;5074377;28;20024;-68
2023/08/08 04:18:37;;;;;;;16.63;8.05;;;13.00;99.90;;;;;;5074424;28;20031;-68
2023/08/08 04:21:02;;;;;;;17.17;7.95;;;13.00;99.90;;;;;;5074509;28;20021;-68
2023/08/08 04:23:28;;;;;;;13.80;8.05;;;13.00;99.90;;;;;;5074417;28;20032;-67
2023/08/08 04:25:53;;;;;;;16.02;9.25;;;13.00;99.90;;;;;;5074206;28;20065;-68
2023/08/08 04:28:19;;;;;;;16.35;8.55;;;13.00;99.90;;;;;;5073808;28;20053;-68
2023/08/08 04:30:44;;;;;;;16.40;8.43;;;13.00;99.90;;;;;;5074042;28;20117;-67
2023/08/08 04:33:10;;;;;;;18.02;8.85;;;13.00;99.90;;;;;;5074221;28;20032;-68
2023/08/08 04:35:35;;;;;;;15.00;8.98;;;13.00;99.90;;;;;;5074245;28;20044;-68
2023/08/08 04:38:01;;;;;;;18.00;9.45;;;13.00;99.90;;;;;;5073909;28;20017;-67
2023/08/08 04:40:27;;;;;;;20.98;9.77;;;13.00;99.90;;;;;;5073899;28;20033;-68
2023/08/08 04:42:53;;;;;;;16.05;8.65;;;13.00;99.90;;;;;;5073855;28;20028;-68
2023/08/08 04:45:18;;;;;;;16.63;8.55;;;13.00;99.90;;;;;;5073873;28;20040;-68
2023/08/08 04:47:44;;;;;;;16.00;9.30;;;13.00;99.90;;;;;;5073851;28;20059;-67
2023/08/08 04:50:10;;;;;;;21.67;9.77;;;13.00;99.90;;;;;;5073711;28;20043;-67
2023/08/08 04:52:36;;;;;;;15.45;9.35;;;13.00;99.90;;;;;;5073786;28;20086;-68
2023/08/08 04:55:01;;;;;;;19.70;10.10;;;13.00;99.90;;;;;;5073041;28;20033;-67
2023/08/08 04:57:27;;;;;;;14.65;9.80;;;13.00;99.90;;;;;;5073566;28;20493;-68
2023/08/08 04:59:52;;;;;;;19.65;10.32;;;12.90;99.90;;;;;;5073569;28;20033;-68
2023/08/08 05:02:18;;;;;;;18.13;9.48;;;13.00;99.90;;;;;;5073826;28;20032;-67
2023/08/08 05:04:43;;;;;;;17.85;9.60;;;13.00;99.90;;;;;;5073566;28;20028;-68
2023/08/08 05:07:09;;;;;;;21.98;9.48;;;13.10;99.90;;;;;;5073531;28;20035;-67
2023/08/08 05:09:34;;;;;;;19.40;10.05;;;13.10;99.90;;;;;;5073501;28;20034;-67
2023/08/08 05:12:00;;;;;;;18.88;10.40;;;13.20;99.90;;;;;;5072161;28;20461;-67
2023/08/08 05:14:26;;;;;;;20.98;11.32;;;13.20;99.90;;;;;;5073139;28;20108;-68
2023/08/08 05:16:52;;;;;;;22.15;11.02;;;13.20;99.90;;;;;;5073338;28;20111;-67
2023/08/08 05:19:17;;;;;;;19.40;10.40;;;13.20;99.90;;;;;;5073428;28;20028;-67
2023/08/08 05:21:43;;;;;;;18.45;11.32;;;13.20;99.90;;;;;;5073351;28;20037;-67
2023/08/08 05:24:08;;;;;;;20.23;12.45;;;13.30;99.90;;;;;;5073500;28;20033;-67
2023/08/08 05:26:34;;;;;;;24.88;13.88;;;13.30;99.90;;;;;;5073117;28;20035;-67
2023/08/08 05:28:59;;;;;;;27.17;13.23;;;13.40;99.90;;;;;;5072703;28;20482;-67
2023/08/08 05:31:25;;;;;;;23.92;14.63;;;13.40;99.90;;;;;;5073198;28;20032;-67
2023/08/08 05:33:50;;;;;;;29.65;13.90;;;13.40;99.90;;;;;;5073323;28;20028;-67
2023/08/08 05:36:16;;;;;;;24.10;15.32;;;13.40;99.90;;;;;;5073147;28;20047;-67
2023/08/08 05:38:41;;;;;;;24.95;14.88;;;13.50;99.90;;;;;;5073167;28;20474;-68
2023/08/08 05:41:07;;;;;;;28.75;14.75;;;13.50;99.90;;;;;;5073183;28;20020;-67
2023/08/08 05:43:33;;;;;;;26.98;16.85;;;13.50;99.90;;;;;;5073082;28;20470;-67
2023/08/08 05:45:59;;;;;;;27.10;15.27;;;13.50;99.90;;;;;;5073038;28;20017;-67
2023/08/08 05:48:24;;;;;;;35.00;18.63;;;13.50;99.90;;;;;;5073029;28;20104;-67
2023/08/08 05:50:50;;;;;;;28.58;18.70;;;13.60;99.90;;;;;;5072884;28;20127;-67
2023/08/08 05:53:15;;;;;;;36.42;17.85;;;13.60;99.90;;;;;;5072923;28;20078;-67
2023/08/08 05:55:42;;;;;;;33.88;18.95;;;13.60;99.90;;;;;;5072977;28;20492;-67
2023/08/08 05:58:08;;;;;;;33.90;19.80;;;13.70;99.90;;;;;;5073275;28;20108;-67
2023/08/08 06:00:34;;;;;;;33.13;19.55;;;13.90;99.90;;;;;;5068045;28;20562;-67
2023/08/08 06:03:00;;;;;;;36.28;19.98;;;14.00;99.90;;;;;;5071597;28;20048;-68
2023/08/08 06:05:26;;;;;;;30.95;20.67;;;13.90;99.90;;;;;;5072743;28;20065;-67
2023/08/08 06:07:51;;;;;;;33.60;20.08;;;13.90;99.90;;;;;;5075706;28;20033;-67
2023/08/08 06:10:17;;;;;;;41.92;21.55;;;13.90;99.90;;;;;;5065426;28;20028;-67
2023/08/08 06:12:42;;;;;;;36.67;21.73;;;13.90;99.90;;;;;;5060138;28;20030;-67
2023/08/08 06:15:08;;;;;;;40.67;21.98;;;14.00;99.90;;;;;;5075436;28;20359;-68
2023/08/08 06:17:34;;;;;;;37.65;20.00;;;14.10;99.90;;;;;;5075475;28;20021;-67
2023/08/08 06:19:59;;;;;;;37.95;22.77;;;14.20;99.90;;;;;;5067836;28;20039;-67
2023/08/08 06:22:25;;;;;;;38.22;21.00;;;14.20;99.90;;;;;;5072140;28;20032;-67
2023/08/08 06:24:50;;;;;;;40.03;22.80;;;14.10;99.90;;;;;;5070587;28;20496;-67
2023/08/08 06:27:16;;;;;;;39.80;22.92;;;14.10;99.90;;;;;;5083148;28;20509;-67
2023/08/08 06:29:42;;;;;;;39.42;22.67;;;14.10;99.90;;;;;;5077353;28;20540;-67
2023/08/08 06:32:08;;;;;;;40.25;23.95;;;14.10;99.90;;;;;;5063919;28;20025;-67
2023/08/08 06:34:33;;;;;;;45.55;24.45;;;14.20;99.90;;;;;;5077698;28;20028;-68
2023/08/08 06:36:59;;;;;;;41.90;24.20;;;14.20;99.90;;;;;;5080291;28;20059;-68
2023/08/08 06:39:25;;;;;;;40.15;24.05;;;14.30;99.90;;;;;;5073630;28;20028;-68
2023/08/08 06:41:50;;;;;;;43.80;24.48;;;14.40;99.90;;;;;;5073593;28;20033;-69
2023/08/08 06:44:16;;;;;;;45.38;25.80;;;14.40;99.90;;;;;;5072647;28;20029;-69
2023/08/08 06:46:41;;;;;;;41.13;26.05;;;14.40;99.90;;;;;;5071128;28;20367;-69
2023/08/08 06:49:08;;;;;;;49.35;25.85;;;14.30;99.90;;;;;;5069033;28;20145;-69
2023/08/08 06:51:35;;;;;;;38.67;24.83;;;14.40;99.90;;;;;;5074604;28;20020;-70
2023/08/08 06:54:00;;;;;;;44.88;25.77;;;14.50;99.90;;;;;;5068464;28;20032;-69
2023/08/08 06:56:26;;;;;;;45.72;26.55;;;14.50;99.90;;;;;;5075337;28;20154;-71
2023/08/08 06:58:52;;;;;;;47.13;27.35;;;14.60;99.90;;;;;;5077430;28;20020;-70
2023/08/08 07:01:18;;;;;;;45.83;25.85;;;14.60;99.90;;;;;;5069899;28;20051;-69
2023/08/08 07:03:43;;;;;;;49.03;26.80;;;14.60;99.90;;;;;;5069304;28;20475;-69
2023/08/08 07:06:10;;;;;;;55.60;28.50;;;14.70;99.90;;;;;;5061485;28;20159;-68
2023/08/08 07:08:37;;;;;;;44.25;28.02;;;15.00;99.90;;;;;;5072849;28;20648;-71
2023/08/08 07:11:02;;;;;;;45.13;28.45;;;14.80;99.90;;;;;;5071139;28;20385;-69
2023/08/08 07:13:28;;;;;;;44.03;28.08;;;14.70;99.90;;;;;;5069292;28;20032;-70
2023/08/08 07:15:53;;;;;;;45.65;29.17;;;14.80;99.90;;;;;;5064885;28;20032;-68
2023/08/08 07:18:19;;;;;;;47.83;31.00;;;15.20;99.90;;;;;;5067902;28;20024;-69
2023/08/08 07:20:44;;;;;;;51.95;28.75;;;15.20;99.90;;;;;;5068371;28;20060;-69
2023/08/08 07:23:10;;;;;;;46.00;28.42;;;15.10;99.90;;;;;;5065725;28;20115;-69
2023/08/08 07:25:35;;;;;;;43.72;27.70;;;15.10;99.90;;;;;;5067761;28;20081;-71
2023/08/08 07:28:01;;;;;;;47.15;26.77;;;15.10;99.90;;;;;;5067413;28;20166;-70
2023/08/08 07:30:26;;;;;;;38.60;26.40;;;15.20;99.90;;;;;;5067735;28;20032;-71
2023/08/08 07:32:52;;;;;;;41.45;28.45;;;15.30;99.90;;;;;;5074265;28;20043;-70
2023/08/08 07:35:18;;;;;;;41.72;26.92;;;15.30;99.90;;;;;;5071230;28;20409;-69
2023/08/08 07:37:43;;;;;;;42.30;27.10;;;15.10;99.90;;;;;;5071838;28;20036;-69
2023/08/08 07:45:20;;;;;;;46.72;27.30;;;15.30;99.90;;;;;;5366145;22;20066;-68
2023/08/08 07:52:52;;;;;;;35.30;24.73;;;15.70;99.90;;;;;;5013586;22;20069;-71
2023/08/08 07:55:17;;;;;;;33.83;25.52;;;15.80;99.90;;;;;;5008651;28;20030;-70
2023/08/08 07:57:43;;;;;;;35.13;24.02;;;15.90;99.90;;;;;;5011138;28;20368;-70
2023/08/08 08:00:11;;;;;;;32.00;23.60;;;15.70;99.90;;;;;;5009967;28;20026;-70
2023/08/08 08:02:37;;;;;;;37.92;24.40;;;15.90;99.90;;;;;;5012057;28;20519;-73
2023/08/08 08:05:05;;;;;;;33.65;23.38;;;15.70;99.90;;;;;;5008686;28;20029;-76
2023/08/08 08:07:32;;;;;;;31.92;24.65;;;15.50;99.90;;;;;;5008222;28;20034;-69
2023/08/08 08:09:57;;;;;;;34.78;23.13;;;15.60;99.90;;;;;;5008263;28;20077;-70
2023/08/08 08:12:23;;;;;;;30.33;23.00;;;16.00;99.90;;;;;;5012385;28;20033;-70
2023/08/08 08:14:48;;;;;;;26.60;19.60;;;16.30;99.90;;;;;;5011016;28;20029;-70
2023/08/08 08:17:14;;;;;;;33.60;20.70;;;17.10;90.50;;;;;;5011337;28;20037;-69
2023/08/08 08:19:39;;;;;;;28.73;19.30;;;17.10;90.40;;;;;;5013145;28;20402;-68
2023/08/08 08:22:05;;;;;;;28.58;19.15;;;16.60;97.40;;;;;;5013984;28;20402;-70
2023/08/08 08:24:30;;;;;;;29.30;18.70;;;17.00;86.70;;;;;;5009137;28;20095;-69
2023/08/08 08:26:56;;;;;;;29.13;18.48;;;17.30;49.20;;;;;;5012334;28;20033;-69
2023/08/08 08:29:21;;;;;;;31.50;18.83;;;17.00;78.30;;;;;;5011181;28;20057;-69
2023/08/08 08:31:47;;;;;;;25.75;18.02;;;16.90;88.20;;;;;;5011861;28;20165;-70
2023/08/08 08:34:13;;;;;;;26.35;16.35;;;16.70;84.80;;;;;;5011832;28;20048;-70
2023/08/08 08:36:38;;;;;;;26.70;15.23;;;17.20;40.40;;;;;;5011839;28;20028;-69
2023/08/08 08:39:04;;;;;;;17.92;13.30;;;18.00;1.00;;;;;;5009530;28;20128;-69
2023/08/08 08:41:35;;;;;;;19.85;13.00;;;17.60;15.00;;;;;;5009269;28;20137;-70
2023/08/08 08:44:01;;;;;;;21.00;12.48;;;18.30;4.90;;;;;;5007045;28;20033;-71
2023/08/08 08:46:28;;;;;;;21.42;12.80;;;18.40;1.00;;;;;;5009286;28;20422;-72
2023/08/08 08:48:56;;;;;;;18.35;13.05;;;18.50;1.00;;;;;;5005097;28;20566;-70
2023/08/08 08:51:21;;;;;;;16.75;11.05;;;18.80;1.00;;;;;;5010251;28;20049;-72
2023/08/08 08:53:47;;;;;;;15.20;11.23;;;18.10;1.00;;;;;;5008522;28;20180;-74
2023/08/08 08:56:16;;;;;;;18.90;11.63;;;18.10;1.00;;;;;;5011105;28;20029;-74
2023/08/08 08:58:42;;;;;;;17.20;10.77;;;18.40;1.00;;;;;;5010897;28;20073;-75
2023/08/08 09:01:09;;;;;;;20.45;10.75;;;19.10;1.00;;;;;;5007501;28;20034;-74
2023/08/08 09:03:36;;;;;;;19.10;9.90;;;18.90;1.00;;;;;;5008761;28;20471;-73
2023/08/08 09:06:04;;;;;;;21.10;9.30;;;18.10;1.00;;;;;;5011439;28;20034;-75
2023/08/08 09:08:29;;;;;;;10.95;7.57;;;18.80;1.00;;;;;;5009753;28;20049;-73
2023/08/08 09:10:56;;;;;;;14.07;7.15;;;19.60;99.90;;;;;;5011030;28;20065;-74
2023/08/08 09:13:22;;;;;;;12.23;7.18;;;19.90;99.90;;;;;;5009792;28;20029;-73
2023/08/08 09:15:49;;;;;;;12.27;7.53;;;19.30;99.90;;;;;;5010310;28;20044;-75
2023/08/08 09:18:15;;;;;;;16.63;7.60;;;18.80;1.00;;;;;;5012175;28;20022;-72
2023/08/08 09:20:40;;;;;;;14.30;8.23;;;18.30;1.00;;;;;;5009167;28;21969;-72
2023/08/08 09:23:06;;;;;;;16.83;9.05;;;17.80;1.00;;;;;;5005903;28;20034;-72
2023/08/08 09:25:31;;;;;;;16.02;9.27;;;17.50;1.00;;;;;;5007342;28;20048;-73
2023/08/08 09:27:57;;;;;;;18.42;9.63;;;17.00;12.90;;;;;;5008918;28;20030;-74
2023/08/08 09:30:22;;;;;;;20.10;12.77;;;16.70;23.40;;;;;;5010874;28;20034;-74
2023/08/08 09:32:48;;;;;;;14.23;11.07;;;16.70;54.20;;;;;;5012501;28;20042;-73
2023/08/08 09:35:14;;;;;;;15.98;10.15;;;16.60;61.20;;;;;;5008613;28;20124;-71
2023/08/08 09:37:40;;;;;;;13.10;8.50;;;16.90;45.90;;;;;;5010372;28;20026;-72
2023/08/08 09:40:07;;;;;;;12.50;7.60;;;17.20;1.00;;;;;;5012584;28;20117;-72
2023/08/08 09:42:34;;;;;;;11.68;7.65;;;18.00;1.00;;;;;;5007889;28;20033;-74
2023/08/08 09:45:00;;;;;;;13.02;6.57;;;18.20;1.00;;;;;;5008473;28;20060;-73
2023/08/08 09:47:31;;;;;;;10.13;5.32;;;19.20;1.00;;;;;;5009667;28;20471;-74
2023/08/08 09:50:01;;;;;;;14.45;5.47;;;20.50;99.90;;;;;;4996989;28;20030;-72
2023/08/08 09:52:28;;;;;;;8.98;4.55;;;20.80;89.20;;;;;;5010849;28;20054;-72
2023/08/08 09:54:55;;;;;;;8.75;4.30;;;19.70;99.90;;;;;;5012415;28;20509;-73
2023/08/08 09:57:22;;;;;;;8.27;3.80;;;18.60;99.90;;;;;;5011637;28;20053;-73
2023/08/08 09:59:51;;;;;;;7.45;3.60;;;18.10;99.90;;;;;;5011490;28;20095;-72
2023/08/08 10:02:17;;;;;;;8.00;3.55;;;17.80;1.00;;;;;;5011245;28;20096;-71
2023/08/08 10:04:45;;;;;;;10.75;4.03;;;17.60;1.00;;;;;;5010426;28;20458;-72
2023/08/08 10:07:11;;;;;;;7.07;3.20;;;18.40;99.90;;;;;;5008501;28;20473;-70
2023/08/08 10:09:37;;;;;;;7.03;2.75;;;19.80;99.90;;;;;;5003567;28;20030;-75
2023/08/08 10:12:05;;;;;;;12.25;3.63;;;20.30;99.90;;;;;;5008806;28;20033;-73
2023/08/08 10:14:34;;;;;;;5.47;3.10;;;20.40;99.90;;;;;;5006736;28;20037;-72
2023/08/08 10:17:03;;;;;;;5.93;2.72;;;20.00;1.00;;;;;;5008941;28;20517;-72
2023/08/08 10:19:29;;;;;;;6.57;2.90;;;20.10;1.00;;;;;;5009911;28;20030;-72
2023/08/08 10:21:58;;;;;;;6.78;3.38;;;20.70;1.00;;;;;;5010836;28;20034;-72
2023/08/08 10:24:23;;;;;;;8.70;2.50;;;21.10;42.50;;;;;;5013397;28;20069;-71
2023/08/08 10:26:54;;;;;;;8.50;2.97;;;21.60;99.90;;;;;;5004961;28;20062;-72
2023/08/08 10:29:20;;;;;;;4.97;2.28;;;20.70;1.00;;;;;;5009937;28;20026;-71
2023/08/08 10:31:58;;;;;;;4.75;2.13;;;20.30;99.90;;;;;;5010677;28;20388;-72
2023/08/08 10:34:44;;;;;;;6.00;2.63;;;19.20;1.00;;;;;;5004563;28;20026;-73
2023/08/08 10:37:12;;;;;;;7.70;2.75;;;18.80;1.00;;;;;;5008276;28;20117;-73
2023/08/08 10:39:50;;;;;;;4.78;2.80;;;19.30;99.90;;;;;;5003217;28;20030;-71
2023/08/08 10:42:19;;;;;;;6.28;2.80;;;19.50;99.90;;;;;;5011046;28;20087;-74
2023/08/08 10:44:55;;;;;;;5.38;2.40;;;19.50;1.00;;;;;;5010207;28;20096;-73
2023/08/08 10:47:24;;;;;;;4.75;2.75;;;20.10;99.90;;;;;;5010088;28;20030;-72
2023/08/08 10:50:03;;;;;;;7.53;3.40;;;20.60;5.50;;;;;;5011201;28;20037;-72
2023/08/08 10:52:29;;;;;;;5.07;2.05;;;20.90;8.10;;;;;;5007318;28;20052;-71
2023/08/08 10:54:55;;;;;;;7.50;2.10;;;20.70;86.60;;;;;;5013813;28;20036;-72
2023/08/08 10:57:24;;;;;;;5.60;2.20;;;20.60;99.90;;;;;;5015099;28;20395;-72
2023/08/08 10:59:50;;;;;;;4.68;1.98;;;20.60;1.00;;;;;;5008711;28;20087;-72
2023/08/08 11:02:17;;;;;;;5.70;2.70;;;20.30;99.90;;;;;;5009978;28;20030;-71
2023/08/08 11:04:42;;;;;;;4.45;1.95;;;20.20;1.00;;;;;;5011207;28;20034;-72
2023/08/08 11:07:09;;;;;;;6.72;2.55;;;19.80;1.00;;;;;;5007762;28;20033;-73
2023/08/08 11:09:34;;;;;;;10.48;3.20;;;19.00;99.90;;;;;;5013170;28;20527;-71
2023/08/08 11:12:00;;;;;;;8.90;2.63;;;18.50;1.00;;;;;;5010978;28;20113;-72
2023/08/08 11:14:26;;;;;;;5.93;2.17;;;18.10;90.40;;;;;;5008244;28;20033;-72
2023/08/08 11:16:52;;;;;;;5.03;2.28;;;18.20;99.90;;;;;;5009463;28;20054;-72
2023/08/08 11:19:19;;;;;;;5.65;2.30;;;18.60;98.60;;;;;;5010050;28;20169;-72
2023/08/08 11:21:46;;;;;;;7.25;2.40;;;19.30;99.90;;;;;;5010508;28;20046;-73
2023/08/08 11:24:13;;;;;;;7.43;3.00;;;19.40;79.40;;;;;;5013644;28;20034;-73
2023/08/08 11:26:40;;;;;;;6.63;2.80;;;19.40;99.90;;;;;;5008658;28;20113;-73
2023/08/08 11:29:06;;;;;;;9.32;2.92;;;19.50;99.90;;;;;;5009217;28;20038;-72
2023/08/08 11:31:34;;;;;;;10.48;3.47;;;19.10;11.50;;;;;;5012398;28;20026;-73
2023/08/08 11:34:00;;;;;;;7.75;3.05;;;18.70;1.00;;;;;;5012785;28;20108;-73
2023/08/08 11:36:30;;;;;;;8.80;3.42;;;18.70;10.80;;;;;;5012844;28;20042;-72
2023/08/08 11:38:57;;;;;;;11.60;3.50;;;18.60;1.00;;;;;;5009106;28;20463;-69
2023/08/08 11:41:24;;;;;;;8.65;3.35;;;18.90;1.00;;;;;;5010209;28;20394;-70
2023/08/08 11:43:51;;;;;;;9.13;3.28;;;19.30;1.00;;;;;;5008598;28;20447;-70
2023/08/08 11:46:17;;;;;;;8.27;4.57;;;19.40;99.90;;;;;;5010222;28;20140;-71
2023/08/08 11:48:46;;;;;;;6.60;2.80;;;19.30;99.90;;;;;;5012128;28;20022;-69
2023/08/08 11:51:15;;;;;;;8.77;3.65;;;19.50;99.90;;;;;;5001915;28;20065;-72
2023/08/08 11:53:55;;;;;;;10.90;3.60;;;19.70;99.90;;;;;;5008029;28;20072;-70
2023/08/08 11:56:21;;;;;;;7.57;3.53;;;19.50;99.90;;;;;;5010796;28;20478;-68
2023/08/08 11:58:51;;;;;;;9.15;4.25;;;19.70;1.00;;;;;;4992250;28;20026;-71
2023/08/08 12:01:20;;;;;;;8.50;3.70;;;19.60;99.90;;;;;;5011030;28;20084;-69
2023/08/08 12:03:46;;;;;;;8.40;3.22;;;19.60;99.90;;;;;;5011233;28;20778;-70
2023/08/08 12:06:14;;;;;;;11.25;3.42;;;19.50;99.90;;;;;;5010742;28;20479;-69
2023/08/08 12:08:42;;;;;;;8.85;3.03;;;19.90;99.90;;;;;;5012479;28;20030;-69
2023/08/08 12:11:11;;;;;;;4.63;2.60;;;20.20;99.90;;;;;;5004595;28;20042;-71
2023/08/08 12:13:40;;;;;;;8.43;3.33;;;20.60;1.00;;;;;;5008957;28;20033;-70
2023/08/08 12:16:06;;;;;;;7.82;3.30;;;20.10;99.90;;;;;;5011196;28;20028;-71
2023/08/08 12:18:34;;;;;;;7.50;3.20;;;19.60;1.00;;;;;;5002972;28;20475;-72
2023/08/08 12:21:01;;;;;;;10.63;4.68;;;19.40;1.00;;;;;;5014215;28;20037;-69
2023/08/08 12:23:27;;;;;;;9.90;4.07;;;18.90;1.00;;;;;;5011794;28;20109;-71
2023/08/08 12:25:53;;;;;;;10.48;4.15;;;18.70;1.00;;;;;;5009059;28;20112;-69
2023/08/08 12:28:19;;;;;;;8.50;3.40;;;18.80;99.90;;;;;;5013285;28;20037;-68
2023/08/08 12:30:44;;;;;;;6.75;3.15;;;18.80;1.00;;;;;;5010815;28;20567;-70
2023/08/08 12:33:10;;;;;;;8.40;3.17;;;19.10;99.90;;;;;;5009492;28;20088;-70
2023/08/08 12:35:36;;;;;;;9.18;3.58;;;18.80;1.00;;;;;;5012482;28;20034;-69
2023/08/08 12:38:03;;;;;;;11.13;3.70;;;18.80;1.00;;;;;;5011669;28;20499;-70
2023/08/08 12:40:29;;;;;;;10.52;3.97;;;18.80;1.00;;;;;;5011175;28;20026;-70